createdAt,value
2022-12-18T00:01:34.802Z,98712.31
2022-12-18T00:04:04.233Z,98711.91
2022-12-18T00:06:33.894Z,98711.09
2022-12-18T00:09:02.805Z,98708.53
2022-12-18T00:11:31.781Z,98705.78
2022-12-18T00:14:00.736Z,98717.34
2022-12-18T00:16:29.343Z,98717.06
2022-12-18T00:18:58.282Z,98727.09
2022-12-18T00:21:25.505Z,98726.97
2022-12-18T00:23:53.173Z,98730.09
2022-12-18T00:26:23.457Z,98736.59
2022-12-18T00:28:54.051Z,98735.94
2022-12-18T00:31:24.477Z,98732.69
2022-12-18T00:33:57.706Z,98732.94
2022-12-18T00:36:27.567Z,98740.84
2022-12-18T00:38:55.788Z,98736.19
2022-12-18T00:41:42.444Z,98744.50
2022-12-18T00:44:12.700Z,98748.84
2022-12-18T00:46:41.263Z,98747.22
2022-12-18T00:49:08.570Z,98753.19
2022-12-18T00:51:38.948Z,98752.66
2022-12-18T00:54:06.873Z,98760.66
2022-12-18T00:56:34.058Z,98768.38
2022-12-18T00:59:02.224Z,98764.56
2022-12-18T01:01:29.480Z,98764.84
2022-12-18T01:03:56.802Z,98765.28
2022-12-18T01:06:24.422Z,98767.31
2022-12-18T01:08:51.741Z,98767.88
2022-12-18T01:11:20.724Z,98774.66
2022-12-18T01:13:48.034Z,98772.34
2022-12-18T01:16:16.924Z,98778.03
2022-12-18T01:18:44.426Z,98776.00
2022-12-18T01:21:18.089Z,98775.72
2022-12-18T01:23:45.252Z,98776.69
2022-12-18T01:26:17.380Z,98779.41
2022-12-18T01:28:45.233Z,98785.91
2022-12-18T01:31:13.255Z,98781.16
2022-12-18T01:33:40.761Z,98791.91
2022-12-18T01:36:08.801Z,98790.53
2022-12-18T01:38:36.025Z,98795.84
2022-12-18T01:41:03.273Z,98807.09
2022-12-18T01:43:45.551Z,98800.41
2022-12-18T01:46:13.298Z,98805.81
2022-12-18T01:48:41.403Z,98811.13
2022-12-18T01:51:10.718Z,98809.81
2022-12-18T01:53:40.373Z,98802.34
2022-12-18T01:56:08.358Z,98810.75
2022-12-18T01:58:49.744Z,98814.44
2022-12-18T02:01:17.046Z,98809.69
2022-12-18T02:03:45.437Z,98809.16
2022-12-18T02:06:25.154Z,98821.25
2022-12-18T02:08:59.091Z,98821.53
2022-12-18T02:11:58.367Z,98824.22
2022-12-18T02:14:50.869Z,98830.88
2022-12-18T02:17:23.668Z,98826.53
2022-12-18T02:20:17.225Z,98822.06
2022-12-18T02:23:06.032Z,98828.31
2022-12-18T02:25:42.238Z,98832.28
2022-12-18T02:28:14.744Z,98829.16
2022-12-18T02:30:43.381Z,98834.72
2022-12-18T02:33:12.463Z,98841.63
2022-12-18T02:35:41.515Z,98831.88
2022-12-18T02:38:10.043Z,98839.19
2022-12-18T02:40:39.408Z,98840.66
2022-12-18T02:43:16.777Z,98848.16
2022-12-18T02:45:57.296Z,98849.66
2022-12-18T02:48:28.777Z,98846.53
2022-12-18T02:51:28.538Z,98859.56
2022-12-18T02:54:07.350Z,98857.22
2022-12-18T02:56:39.529Z,98851.13
2022-12-18T02:59:12.710Z,98856.78
2022-12-18T03:02:00.042Z,98863.31
2022-12-18T03:04:32.269Z,98858.81
2022-12-18T03:07:03.852Z,98857.03
2022-12-18T03:09:43.331Z,98858.72
2022-12-18T03:12:25.857Z,98864.22
2022-12-18T03:14:58.845Z,98871.31
2022-12-18T03:17:28.424Z,98872.34
2022-12-18T03:19:58.469Z,98874.25
2022-12-18T03:22:28.277Z,98883.41
2022-12-18T03:24:58.228Z,98880.97
2022-12-18T03:27:26.554Z,98886.66
2022-12-18T03:30:17.166Z,98890.75
2022-12-18T03:33:14.770Z,98894.06
2022-12-18T03:35:45.694Z,98885.81
2022-12-18T03:38:13.683Z,98892.25
2022-12-18T03:41:06.687Z,98883.19
2022-12-18T03:43:58.266Z,98889.03
2022-12-18T03:46:30.048Z,98889.88
2022-12-18T03:49:02.602Z,98894.22
2022-12-18T03:51:47.426Z,98894.19
2022-12-18T03:54:16.132Z,98897.06
2022-12-18T03:56:59.566Z,98903.19
2022-12-18T03:59:27.544Z,98921.69
2022-12-18T04:01:56.007Z,98913.13
2022-12-18T04:04:25.384Z,98911.41
2022-12-18T04:06:53.593Z,98909.75
2022-12-18T04:09:21.665Z,98916.00
2022-12-18T04:11:49.686Z,98921.78
2022-12-18T04:14:18.171Z,98924.41
2022-12-18T04:16:46.726Z,98926.69
2022-12-18T04:19:16.797Z,98928.75
2022-12-18T04:21:45.768Z,98926.53
2022-12-18T04:24:14.443Z,98931.06
2022-12-18T04:26:49.516Z,98933.31
2022-12-18T04:29:19.001Z,98931.53
2022-12-18T04:31:46.666Z,98944.81
2022-12-18T04:34:14.234Z,98939.28
2022-12-18T04:36:48.979Z,98937.66
2022-12-18T04:39:16.631Z,98958.25
2022-12-18T04:41:44.218Z,98950.38
2022-12-18T04:44:13.120Z,98958.44
2022-12-18T04:46:40.194Z,98960.19
2022-12-18T04:49:07.412Z,98966.75
2022-12-18T04:51:34.468Z,98961.34
2022-12-18T04:54:01.621Z,98963.31
2022-12-18T04:56:28.693Z,98964.03
2022-12-18T04:58:55.815Z,98967.25
2022-12-18T05:01:23.028Z,98972.41
2022-12-18T05:03:50.322Z,98979.63
2022-12-18T05:06:17.362Z,98986.88
2022-12-18T05:08:44.608Z,98989.03
2022-12-18T05:11:16.682Z,98993.13
2022-12-18T05:13:45.508Z,98984.94
2022-12-18T05:16:13.959Z,98985.91
2022-12-18T05:18:41.835Z,98988.16
2022-12-18T05:21:09.124Z,98981.28
2022-12-18T05:23:37.025Z,98987.44
2022-12-18T05:26:06.824Z,98984.03
2022-12-18T05:28:35.367Z,98991.63
2022-12-18T05:31:03.916Z,98997.06
2022-12-18T05:33:33.213Z,99001.25
2022-12-18T05:36:04.940Z,99003.53
2022-12-18T05:38:33.481Z,98998.06
2022-12-18T05:41:00.859Z,98994.22
2022-12-18T05:43:28.302Z,99005.59
2022-12-18T05:45:55.688Z,99004.44
2022-12-18T05:48:22.876Z,99003.31
2022-12-18T05:50:51.325Z,99009.84
2022-12-18T05:53:20.403Z,99006.50
2022-12-18T05:55:48.161Z,99007.84
2022-12-18T05:58:16.571Z,99004.63
2022-12-18T06:00:46.337Z,99006.72
2022-12-18T06:03:14.583Z,99012.94
2022-12-18T06:05:44.456Z,99015.63
2022-12-18T06:08:12.062Z,99017.81
2022-12-18T06:10:39.641Z,99014.94
2022-12-18T06:13:07.331Z,99021.22
2022-12-18T06:15:37.015Z,99017.69
2022-12-18T06:18:04.387Z,99020.28
2022-12-18T06:20:33.582Z,99024.47
2022-12-18T06:23:01.435Z,99018.97
2022-12-18T06:25:28.941Z,99014.16
2022-12-18T06:27:56.092Z,99029.06
2022-12-18T06:30:23.625Z,99022.13
2022-12-18T06:32:56.390Z,99024.16
2022-12-18T06:35:24.354Z,99027.06
2022-12-18T06:37:51.952Z,99027.16
2022-12-18T06:40:19.971Z,99031.59
2022-12-18T06:42:47.285Z,99030.47
2022-12-18T06:45:14.548Z,99041.63
2022-12-18T06:47:41.735Z,99041.16
2022-12-18T06:50:09.061Z,99040.28
2022-12-18T06:52:36.325Z,99047.06
2022-12-18T06:55:04.168Z,99050.53
2022-12-18T06:57:31.350Z,99050.72
2022-12-18T06:59:58.531Z,99056.75
2022-12-18T07:02:25.951Z,99064.66
2022-12-18T07:04:53.115Z,99056.38
2022-12-18T07:07:20.381Z,99057.78
2022-12-18T07:09:47.535Z,99077.88
2022-12-18T07:12:14.615Z,99077.69
2022-12-18T07:14:41.666Z,99083.44
2022-12-18T07:17:08.989Z,99087.47
2022-12-18T07:19:36.305Z,99085.75
2022-12-18T07:22:03.883Z,99084.59
2022-12-18T07:24:33.433Z,99086.00
2022-12-18T07:27:01.501Z,99095.38
2022-12-18T07:29:28.660Z,99098.84
2022-12-18T07:31:55.903Z,99098.63
2022-12-18T07:34:23.101Z,99107.06
2022-12-18T07:36:50.267Z,99106.63
2022-12-18T07:39:17.431Z,99114.66
2022-12-18T07:41:47.446Z,99108.97
2022-12-18T07:44:16.740Z,99117.66
2022-12-18T07:46:43.761Z,99124.47
2022-12-18T07:49:10.996Z,99120.09
2022-12-18T07:51:38.208Z,99130.28
2022-12-18T07:54:05.669Z,99126.09
2022-12-18T07:56:32.989Z,99128.53
2022-12-18T07:59:05.248Z,99132.50
2022-12-18T08:01:32.589Z,99130.59
2022-12-18T08:03:59.954Z,99127.91
2022-12-18T08:06:27.567Z,99124.81
2022-12-18T08:08:56.332Z,99127.66
2022-12-18T08:11:25.469Z,99136.56
2022-12-18T08:13:53.108Z,99132.25
2022-12-18T08:16:21.008Z,99134.00
2022-12-18T08:18:49.605Z,99136.84
2022-12-18T08:21:35.852Z,99136.63
2022-12-18T08:24:03.219Z,99134.22
2022-12-18T08:26:32.114Z,99140.88
2022-12-18T08:29:00.914Z,99142.03
2022-12-18T08:31:29.395Z,99148.56
2022-12-18T08:33:57.006Z,99155.09
2022-12-18T08:36:25.462Z,99149.06
2022-12-18T08:38:53.994Z,99143.56
2022-12-18T08:41:21.421Z,99157.19
2022-12-18T08:44:07.371Z,99159.53
2022-12-18T08:46:38.184Z,99157.38
2022-12-18T08:49:06.402Z,99162.72
2022-12-18T08:51:34.452Z,99168.09
2022-12-18T08:54:01.834Z,99169.00
2022-12-18T08:56:31.113Z,99174.28
2022-12-18T08:58:58.632Z,99182.88
2022-12-18T09:01:25.891Z,99175.03
2022-12-18T09:03:56.318Z,99179.66
2022-12-18T09:06:24.371Z,99170.28
2022-12-18T09:08:51.857Z,99180.25
2022-12-18T09:11:25.232Z,99180.25
2022-12-18T09:13:53.879Z,99189.50
2022-12-18T09:16:22.522Z,99187.47
2022-12-18T09:18:52.373Z,99185.13
2022-12-18T09:21:21.816Z,99182.69
2022-12-18T09:23:52.782Z,99182.78
2022-12-18T09:26:20.793Z,99186.50
2022-12-18T09:28:48.287Z,99196.97
2022-12-18T09:31:15.906Z,99189.38
2022-12-18T09:33:43.610Z,99194.84
2022-12-18T09:36:13.325Z,99185.97
2022-12-18T09:38:41.478Z,99184.16
2022-12-18T09:41:33.824Z,99193.47
2022-12-18T09:44:20.419Z,99185.00
2022-12-18T09:46:53.830Z,99181.66
2022-12-18T09:49:24.807Z,99185.38
2022-12-18T09:52:01.179Z,99190.75
2022-12-18T09:54:37.416Z,99184.81
2022-12-18T09:57:05.638Z,99184.56
2022-12-18T09:59:38.998Z,99187.16
2022-12-18T10:02:26.300Z,99187.03
2022-12-18T10:05:02.471Z,99190.22
2022-12-18T10:07:59.115Z,99184.88
2022-12-18T10:10:53.247Z,99183.28
2022-12-18T10:13:35.293Z,99181.16
2022-12-18T10:16:24.055Z,99173.25
2022-12-18T10:19:15.954Z,99162.63
2022-12-18T10:21:59.159Z,99163.44
2022-12-18T10:24:41.139Z,99155.22
2022-12-18T10:27:19.929Z,99150.09
2022-12-18T10:29:47.364Z,99151.06
2022-12-18T10:32:17.665Z,99155.50
2022-12-18T10:34:59.857Z,99160.13
2022-12-18T10:37:30.852Z,99152.81
2022-12-18T10:40:19.862Z,99146.50
2022-12-18T10:43:04.889Z,99141.41
2022-12-18T10:45:32.407Z,99140.34
2022-12-18T10:47:59.949Z,99132.78
2022-12-18T10:51:01.743Z,99131.25
2022-12-18T10:53:25.957Z,99133.28
2022-12-18T10:55:54.992Z,99139.03
2022-12-18T10:58:33.375Z,99137.88
2022-12-18T11:01:06.590Z,99139.56
2022-12-18T11:03:40.170Z,99136.66
2022-12-18T11:06:22.864Z,99150.78
2022-12-18T11:09:13.335Z,99152.06
2022-12-18T11:11:49.403Z,99145.50
2022-12-18T11:14:22.237Z,99143.25
2022-12-18T11:17:24.185Z,99139.72
2022-12-18T11:19:40.932Z,99145.00
2022-12-18T11:22:32.546Z,99134.63
2022-12-18T11:25:35.661Z,99132.88
2022-12-18T11:28:05.844Z,99123.28
2022-12-18T11:30:38.056Z,99126.78
2022-12-18T11:33:07.658Z,99121.31
2022-12-18T11:36:05.691Z,99109.25
2022-12-18T11:38:41.947Z,99114.06
2022-12-18T11:41:52.749Z,99120.69
2022-12-18T11:44:27.561Z,99120.91
2022-12-18T11:47:01.713Z,99131.56
2022-12-18T11:49:37.966Z,99127.63
2022-12-18T11:52:10.664Z,99131.88
2022-12-18T11:54:37.917Z,99130.06
2022-12-18T11:57:13.751Z,99134.63
2022-12-18T11:59:58.222Z,99129.66
2022-12-18T12:02:43.839Z,99132.31
2022-12-18T12:05:20.192Z,99142.66
2022-12-18T12:08:20.159Z,99152.41
2022-12-18T12:10:50.234Z,99149.94
2022-12-18T12:13:39.774Z,99148.91
2022-12-18T12:16:16.535Z,99156.63
2022-12-18T12:19:21.820Z,99153.69
2022-12-18T12:22:28.730Z,99151.31
2022-12-18T12:25:07.683Z,99153.38
2022-12-18T12:28:15.451Z,99161.16
2022-12-18T12:30:54.236Z,99158.97
2022-12-18T12:33:34.839Z,99160.59
2022-12-18T12:36:16.725Z,99161.91
2022-12-18T12:38:51.912Z,99153.59
2022-12-18T12:41:46.180Z,99163.28
2022-12-18T12:44:35.739Z,99169.97
2022-12-18T12:47:17.471Z,99163.03
2022-12-18T12:49:49.244Z,99173.28
2022-12-18T12:52:31.717Z,99172.81
2022-12-18T12:54:59.657Z,99166.81
2022-12-18T12:57:39.035Z,99168.53
2022-12-18T13:00:11.615Z,99165.25
2022-12-18T13:02:45.237Z,99159.94
2022-12-18T13:05:39.893Z,99164.88
2022-12-18T13:08:09.375Z,99152.81
2022-12-18T13:10:41.924Z,99151.38
2022-12-18T13:13:10.560Z,99164.31
2022-12-18T13:15:46.885Z,99168.16
2022-12-18T13:18:17.212Z,99170.16
2022-12-18T13:20:53.683Z,99172.97
2022-12-18T13:23:37.874Z,99169.94
2022-12-18T13:26:09.238Z,99168.53
2022-12-18T13:28:48.479Z,99173.03
2022-12-18T13:31:36.550Z,99166.97
2022-12-18T13:34:29.356Z,99161.06
2022-12-18T13:37:35.629Z,99165.88
2022-12-18T13:40:03.151Z,99161.66
2022-12-18T13:42:48.729Z,99162.00
2022-12-18T13:45:46.064Z,99152.88
2022-12-18T13:48:36.996Z,99154.91
2022-12-18T13:51:09.951Z,99158.41
2022-12-18T13:53:43.776Z,99157.25
2022-12-18T13:56:17.477Z,99155.72
2022-12-18T13:58:45.869Z,99159.59
2022-12-18T14:01:25.993Z,99162.97
2022-12-18T14:04:23.330Z,99163.16
2022-12-18T14:06:52.834Z,99161.25
2022-12-18T14:09:26.193Z,99164.47
2022-12-18T14:12:15.601Z,99163.16
2022-12-18T14:14:46.509Z,99165.72
2022-12-18T14:17:16.391Z,99170.56
2022-12-18T14:19:47.482Z,99167.63
2022-12-18T14:22:18.775Z,99162.81
2022-12-18T14:24:46.581Z,99162.00
2022-12-18T14:27:26.043Z,99165.66
2022-12-18T14:29:53.207Z,99174.78
2022-12-18T14:32:21.567Z,99175.34
2022-12-18T14:34:54.642Z,99175.53
2022-12-18T14:37:24.894Z,99182.25
2022-12-18T14:40:10.841Z,99173.75
2022-12-18T14:42:38.680Z,99173.69
2022-12-18T14:45:42.213Z,99181.59
2022-12-18T14:48:26.725Z,99170.84
2022-12-18T14:51:18.790Z,99174.66
2022-12-18T14:53:53.970Z,99182.50
2022-12-18T14:56:30.852Z,99183.53
2022-12-18T14:59:04.819Z,99182.69
2022-12-18T15:01:45.733Z,99172.84
2022-12-18T15:04:33.339Z,99178.25
2022-12-18T15:07:21.464Z,99176.91
2022-12-18T15:10:08.884Z,99181.44
2022-12-18T15:12:41.015Z,99185.53
2022-12-18T15:15:39.331Z,99172.28
2022-12-18T15:18:09.675Z,99179.34
2022-12-18T15:20:49.386Z,99190.81
2022-12-18T15:23:23.820Z,99195.72
2022-12-18T15:25:58.617Z,99201.84
2022-12-18T15:28:39.345Z,99205.25
2022-12-18T15:31:24.419Z,99205.66
2022-12-18T15:33:54.611Z,99199.66
2022-12-18T15:36:26.401Z,99200.03
2022-12-18T15:39:04.659Z,99215.06
2022-12-18T15:41:35.776Z,99207.66
2022-12-18T15:44:04.599Z,99219.75
2022-12-18T15:46:32.280Z,99218.38
2022-12-18T15:49:02.528Z,99232.56
2022-12-18T15:51:35.630Z,99231.25
2022-12-18T15:54:05.169Z,99236.50
2022-12-18T15:56:51.264Z,99229.72
2022-12-18T15:59:19.972Z,99236.59
2022-12-18T16:01:52.137Z,99246.47
2022-12-18T16:04:24.615Z,99246.63
2022-12-18T16:07:14.914Z,99244.81
2022-12-18T16:09:40.162Z,99234.78
2022-12-18T16:12:25.984Z,99244.00
2022-12-18T16:14:53.310Z,99251.94
2022-12-18T16:17:20.802Z,99249.69
2022-12-18T16:19:48.027Z,99242.28
2022-12-18T16:22:29.282Z,99252.47
2022-12-18T16:24:57.595Z,99257.34
2022-12-18T16:27:25.542Z,99247.84
2022-12-18T16:29:52.705Z,99245.94
2022-12-18T16:32:21.612Z,99236.53
2022-12-18T16:34:49.740Z,99228.00
2022-12-18T16:37:17.455Z,99232.59
2022-12-18T16:39:45.310Z,99233.22
2022-12-18T16:42:20.496Z,99233.94
2022-12-18T16:44:49.269Z,99229.13
2022-12-18T16:47:17.140Z,99223.91
2022-12-18T16:49:51.819Z,99226.56
2022-12-18T16:52:19.694Z,99221.97
2022-12-18T16:54:47.185Z,99220.97
2022-12-18T16:57:17.724Z,99209.97
2022-12-18T16:59:45.257Z,99201.06
2022-12-18T17:02:16.225Z,99205.47
2022-12-18T17:04:45.720Z,99193.56
2022-12-18T17:07:13.453Z,99185.97
2022-12-18T17:09:41.224Z,99176.56
2022-12-18T17:12:09.389Z,99179.31
2022-12-18T17:14:38.517Z,99174.31
2022-12-18T17:17:22.657Z,99175.50
2022-12-18T17:19:51.542Z,99181.16
2022-12-18T17:22:18.748Z,99177.66
2022-12-18T17:24:47.396Z,99182.88
2022-12-18T17:27:14.832Z,99173.06
2022-12-18T17:29:47.389Z,99166.88
2022-12-18T17:32:17.013Z,99167.72
2022-12-18T17:34:44.406Z,99162.03
2022-12-18T17:37:11.604Z,99163.09
2022-12-18T17:39:39.245Z,99165.00
2022-12-18T17:42:07.743Z,99168.84
2022-12-18T17:44:37.201Z,99171.31
2022-12-18T17:47:06.072Z,99175.63
2022-12-18T17:49:33.335Z,99178.28
2022-12-18T17:52:00.623Z,99168.97
2022-12-18T17:54:27.874Z,99172.28
2022-12-18T17:56:55.018Z,99170.22
2022-12-18T17:59:22.789Z,99185.72
2022-12-18T18:01:50.276Z,99180.94
2022-12-18T18:04:17.767Z,99184.69
2022-12-18T18:06:45.020Z,99173.13
2022-12-18T18:09:16.151Z,99180.19
2022-12-18T18:12:05.987Z,99184.50
2022-12-18T18:14:33.634Z,99183.22
2022-12-18T18:17:04.679Z,99188.50
2022-12-18T18:19:33.525Z,99200.47
2022-12-18T18:22:02.964Z,99209.66
2022-12-18T18:24:30.696Z,99190.84
2022-12-18T18:26:59.727Z,99188.22
2022-12-18T18:29:28.319Z,99188.81
2022-12-18T18:31:56.920Z,99196.16
2022-12-18T18:34:26.103Z,99192.56
2022-12-18T18:36:53.591Z,99199.50
2022-12-18T18:39:21.224Z,99203.03
2022-12-18T18:41:48.965Z,99205.59
2022-12-18T18:44:17.929Z,99214.75
2022-12-18T18:46:45.742Z,99217.53
2022-12-18T18:49:14.008Z,99224.22
2022-12-18T18:51:42.211Z,99228.19
2022-12-18T18:54:09.864Z,99229.66
2022-12-18T18:57:04.139Z,99233.69
2022-12-18T18:59:31.394Z,99241.09
2022-12-18T19:02:04.194Z,99239.88
2022-12-18T19:04:33.828Z,99237.16
2022-12-18T19:07:01.200Z,99239.31
2022-12-18T19:09:28.697Z,99237.25
2022-12-18T19:12:14.672Z,99234.78
2022-12-18T19:14:42.282Z,99240.09
2022-12-18T19:17:10.730Z,99234.34
2022-12-18T19:19:38.241Z,99233.34
2022-12-18T19:22:06.531Z,99235.91
2022-12-18T19:24:33.919Z,99244.16
2022-12-18T19:27:01.004Z,99230.72
2022-12-18T19:29:28.102Z,99232.19
2022-12-18T19:31:55.342Z,99236.06
2022-12-18T19:34:22.579Z,99235.72
2022-12-18T19:36:52.940Z,99238.94
2022-12-18T19:39:23.832Z,99241.00
2022-12-18T19:41:52.664Z,99248.19
2022-12-18T19:44:19.773Z,99248.19
2022-12-18T19:46:49.873Z,99251.59
2022-12-18T19:49:17.574Z,99242.84
2022-12-18T19:51:46.713Z,99231.41
2022-12-18T19:54:16.961Z,99237.97
2022-12-18T19:56:45.140Z,99244.56
2022-12-18T19:59:12.771Z,99240.25
2022-12-18T20:01:40.522Z,99238.41
2022-12-18T20:04:08.029Z,99237.28
2022-12-18T20:06:46.220Z,99242.63
2022-12-18T20:09:13.453Z,99225.38
2022-12-18T20:11:41.841Z,99230.56
2022-12-18T20:14:14.015Z,99231.97
2022-12-18T20:16:42.727Z,99226.53
2022-12-18T20:19:12.307Z,99230.06
2022-12-18T20:21:40.224Z,99239.00
2022-12-18T20:24:08.453Z,99235.69
2022-12-18T20:26:35.857Z,99234.91
2022-12-18T20:29:03.067Z,99229.91
2022-12-18T20:31:30.421Z,99220.50
2022-12-18T20:34:00.375Z,99219.50
2022-12-18T20:36:29.530Z,99224.16
2022-12-18T20:39:00.498Z,99229.25
2022-12-18T20:41:37.430Z,99227.09
2022-12-18T20:44:11.003Z,99220.97
2022-12-18T20:46:51.479Z,99212.19
2022-12-18T20:49:18.688Z,99215.13
2022-12-18T20:51:46.156Z,99214.91
2022-12-18T20:54:13.698Z,99219.50
2022-12-18T20:56:40.722Z,99209.09
2022-12-18T20:59:08.083Z,99206.91
2022-12-18T21:01:35.586Z,99200.94
2022-12-18T21:04:04.805Z,99205.44
2022-12-18T21:06:32.185Z,99202.31
2022-12-18T21:08:59.468Z,99207.81
2022-12-18T21:11:50.490Z,99201.50
2022-12-18T21:14:23.298Z,99191.34
2022-12-18T21:16:51.158Z,99196.66
2022-12-18T21:19:21.088Z,99199.56
2022-12-18T21:21:48.528Z,99190.63
2022-12-18T21:24:16.578Z,99180.38
2022-12-18T21:26:46.070Z,99189.69
2022-12-18T21:29:16.950Z,99185.50
2022-12-18T21:31:45.437Z,99183.16
2022-12-18T21:34:25.627Z,99183.22
2022-12-18T21:36:54.013Z,99185.84
2022-12-18T21:39:22.580Z,99175.06
2022-12-18T21:42:09.456Z,99185.88
2022-12-18T21:44:41.583Z,99189.66
2022-12-18T21:47:20.851Z,99188.22
2022-12-18T21:49:53.770Z,99187.78
2022-12-18T21:52:31.257Z,99188.44
2022-12-18T21:55:06.616Z,99203.81
2022-12-18T21:57:37.016Z,99198.16
2022-12-18T22:00:05.724Z,99200.59
2022-12-18T22:02:39.337Z,99204.75
2022-12-18T22:05:07.463Z,99211.59
2022-12-18T22:07:34.986Z,99214.34
2022-12-18T22:10:02.418Z,99212.72
2022-12-18T22:12:37.750Z,99214.75
2022-12-18T22:15:11.626Z,99219.56
2022-12-18T22:17:40.292Z,99217.41
2022-12-18T22:20:09.360Z,99228.06
2022-12-18T22:22:36.624Z,99220.19
2022-12-18T22:25:04.025Z,99223.50
2022-12-18T22:27:31.454Z,99230.09
2022-12-18T22:30:04.355Z,99223.84
2022-12-18T22:32:33.433Z,99220.75
2022-12-18T22:35:06.893Z,99216.84
2022-12-18T22:37:35.454Z,99215.31
2022-12-18T22:40:07.268Z,99217.06
2022-12-18T22:42:34.667Z,99222.72
2022-12-18T22:45:01.860Z,99219.44
2022-12-18T22:47:30.381Z,99218.19
2022-12-18T22:49:58.439Z,99213.88
2022-12-18T22:52:25.806Z,99220.03
2022-12-18T22:54:54.336Z,99211.94
2022-12-18T22:57:22.771Z,99215.03
2022-12-18T22:59:50.701Z,99217.06
2022-12-18T23:02:18.927Z,99203.69
2022-12-18T23:04:47.719Z,99211.00
2022-12-18T23:07:15.896Z,99215.72
2022-12-18T23:09:43.295Z,99217.03
2022-12-18T23:12:14.836Z,99210.47
2022-12-18T23:14:42.785Z,99216.75
2022-12-18T23:17:10.286Z,99220.53
2022-12-18T23:19:37.680Z,99220.03
2022-12-18T23:22:10.068Z,99216.84
2022-12-18T23:24:38.917Z,99196.41
2022-12-18T23:27:09.387Z,99201.69
2022-12-18T23:29:39.548Z,99191.28
2022-12-18T23:32:06.965Z,99191.88
2022-12-18T23:34:34.068Z,99191.31
2022-12-18T23:37:01.307Z,99189.88
2022-12-18T23:39:29.656Z,99185.38
2022-12-18T23:42:00.771Z,99182.31
2022-12-18T23:44:28.303Z,99173.16
2022-12-18T23:46:55.793Z,99179.78
2022-12-18T23:49:23.148Z,99176.69
2022-12-18T23:51:50.470Z,99173.88
2022-12-18T23:54:17.549Z,99161.25
2022-12-18T23:56:49.843Z,99165.00
2022-12-18T23:59:19.371Z,99167.78
